createdAt,value
2018-03-15T00:01:58.781Z,5.09
2018-03-15T00:04:40.851Z,5.09
2018-03-15T00:07:08.416Z,5.11
2018-03-15T00:09:35.962Z,5.10
2018-03-15T00:12:03.499Z,5.04
2018-03-15T00:14:31.058Z,5.05
2018-03-15T00:16:58.706Z,5.05
2018-03-15T00:19:26.228Z,5.06
2018-03-15T00:21:53.771Z,5.12
2018-03-15T00:24:21.300Z,5.12
2018-03-15T00:26:48.933Z,5.14
2018-03-15T00:29:16.485Z,5.20
2018-03-15T00:31:44.037Z,5.23
2018-03-15T00:34:11.544Z,5.22
2018-03-15T00:36:39.064Z,5.22
2018-03-15T00:39:06.603Z,5.11
2018-03-15T00:41:34.111Z,5.05
2018-03-15T00:44:01.670Z,5.04
2018-03-15T00:46:29.216Z,5.01
2018-03-15T00:48:57.000Z,5.00
2018-03-15T00:51:24.517Z,5.02
2018-03-15T00:53:52.053Z,5.04
2018-03-15T00:56:19.577Z,4.99
2018-03-15T00:58:47.090Z,4.94
2018-03-15T01:01:14.617Z,4.98
2018-03-15T01:03:42.144Z,4.94
2018-03-15T01:06:09.675Z,5.00
2018-03-15T01:08:37.226Z,5.03
2018-03-15T01:11:04.721Z,5.06
2018-03-15T01:13:32.263Z,5.00
2018-03-15T01:15:59.798Z,4.99
2018-03-15T01:18:27.391Z,5.01
2018-03-15T01:20:54.860Z,4.98
2018-03-15T01:23:22.393Z,4.99
2018-03-15T01:25:49.891Z,4.96
2018-03-15T01:28:17.425Z,5.00
2018-03-15T01:30:44.959Z,4.92
2018-03-15T01:33:12.788Z,4.87
2018-03-15T01:35:40.372Z,4.84
2018-03-15T01:38:08.228Z,4.87
2018-03-15T01:40:35.719Z,4.88
2018-03-15T01:43:03.250Z,4.87
2018-03-15T01:45:30.756Z,4.93
2018-03-15T01:47:58.674Z,4.89
2018-03-15T01:50:26.199Z,4.88
2018-03-15T01:52:53.720Z,4.87
2018-03-15T01:55:21.328Z,4.84
2018-03-15T01:57:48.841Z,4.92
2018-03-15T02:00:16.411Z,4.95
2018-03-15T02:02:43.962Z,4.92
2018-03-15T02:05:11.498Z,4.90
2018-03-15T02:07:39.353Z,4.86
2018-03-15T02:10:06.868Z,4.88
2018-03-15T02:12:34.416Z,4.87
2018-03-15T02:15:01.944Z,4.88
2018-03-15T02:17:29.471Z,4.90
2018-03-15T02:19:56.987Z,4.94
2018-03-15T02:22:24.512Z,4.88
2018-03-15T02:24:52.043Z,4.85
2018-03-15T02:27:19.563Z,4.89
2018-03-15T02:29:47.085Z,4.85
2018-03-15T02:32:14.616Z,4.85
2018-03-15T02:34:42.419Z,4.77
2018-03-15T02:37:09.949Z,4.77
2018-03-15T02:39:38.370Z,4.74
2018-03-15T02:42:06.228Z,4.82
2018-03-15T02:44:34.193Z,4.88
2018-03-15T02:47:01.788Z,4.87
2018-03-15T02:49:29.620Z,4.84
2018-03-15T02:51:57.392Z,4.85
2018-03-15T02:54:24.913Z,4.87
2018-03-15T02:56:52.431Z,4.82
2018-03-15T02:59:20.012Z,4.87
2018-03-15T03:01:47.558Z,4.89
2018-03-15T03:04:15.078Z,4.86
2018-03-15T03:06:42.621Z,4.83
2018-03-15T03:09:10.261Z,4.84
2018-03-15T03:11:37.721Z,4.82
2018-03-15T03:14:05.259Z,4.86
2018-03-15T03:16:32.772Z,4.82
2018-03-15T03:19:00.287Z,4.80
2018-03-15T03:21:28.116Z,4.79
2018-03-15T03:23:55.662Z,4.81
2018-03-15T03:26:23.172Z,4.79
2018-03-15T03:28:50.702Z,4.82
2018-03-15T03:31:18.233Z,4.81
2018-03-15T03:33:45.764Z,4.87
2018-03-15T03:36:13.363Z,4.82
2018-03-15T03:38:40.953Z,4.96
2018-03-15T03:41:08.513Z,4.88
2018-03-15T03:43:36.053Z,4.89
2018-03-15T03:46:03.930Z,4.83
2018-03-15T03:48:31.507Z,4.85
2018-03-15T03:50:59.078Z,4.86
2018-03-15T03:53:26.613Z,4.80
2018-03-15T03:55:54.160Z,4.82
2018-03-15T03:58:21.681Z,4.87
2018-03-15T04:00:49.286Z,4.89
2018-03-15T04:03:16.880Z,4.86
2018-03-15T04:05:44.408Z,4.73
2018-03-15T04:08:11.947Z,4.72
2018-03-15T04:10:39.469Z,4.70
2018-03-15T04:13:07.000Z,4.67
2018-03-15T04:15:34.544Z,4.72
2018-03-15T04:18:02.160Z,4.63
2018-03-15T04:20:29.646Z,4.63
2018-03-15T04:22:57.161Z,4.63
2018-03-15T04:25:24.679Z,4.68
2018-03-15T04:27:52.187Z,4.72
2018-03-15T04:30:19.711Z,4.68
2018-03-15T04:32:47.232Z,4.57
2018-03-15T04:35:14.751Z,4.58
2018-03-15T04:37:42.284Z,4.57
2018-03-15T04:40:09.860Z,4.59
2018-03-15T04:42:37.375Z,4.62
2018-03-15T04:45:04.942Z,4.64
2018-03-15T04:47:32.462Z,4.66
2018-03-15T04:50:00.026Z,4.69
2018-03-15T04:52:27.552Z,4.68
2018-03-15T04:54:55.093Z,4.69
2018-03-15T04:57:23.250Z,4.66
2018-03-15T04:59:50.781Z,4.60
2018-03-15T05:02:18.381Z,4.64
2018-03-15T05:04:45.930Z,4.60
2018-03-15T05:07:13.457Z,4.57
2018-03-15T05:09:41.048Z,4.52
2018-03-15T05:12:08.577Z,4.54
2018-03-15T05:14:36.132Z,4.48
2018-03-15T05:17:03.686Z,4.52
2018-03-15T05:19:31.717Z,4.55
2018-03-15T05:21:59.245Z,4.55
2018-03-15T05:24:26.838Z,4.52
2018-03-15T05:26:54.345Z,4.54
2018-03-15T05:29:21.876Z,4.56
2018-03-15T05:31:49.410Z,4.53
2018-03-15T05:34:16.981Z,4.57
2018-03-15T05:36:44.501Z,4.53
2018-03-15T05:39:12.033Z,4.52
2018-03-15T05:41:39.564Z,4.57
2018-03-15T05:44:07.153Z,4.63
2018-03-15T05:46:34.721Z,4.59
2018-03-15T05:49:02.331Z,4.59
2018-03-15T05:51:29.867Z,4.56
2018-03-15T05:53:57.403Z,4.51
2018-03-15T05:56:24.959Z,4.52
2018-03-15T05:58:52.490Z,4.55
2018-03-15T06:01:20.024Z,4.41
2018-03-15T06:03:47.532Z,4.46
2018-03-15T06:06:15.076Z,4.44
2018-03-15T06:08:42.619Z,4.43
2018-03-15T06:11:10.176Z,4.43
2018-03-15T06:13:37.720Z,4.45
2018-03-15T06:16:05.262Z,4.48
2018-03-15T06:18:33.054Z,4.45
2018-03-15T06:21:00.585Z,4.45
2018-03-15T06:23:28.123Z,4.55
2018-03-15T06:25:55.642Z,4.52
2018-03-15T06:28:23.188Z,4.43
2018-03-15T06:30:50.718Z,4.41
2018-03-15T06:33:18.249Z,4.32
2018-03-15T06:35:45.782Z,4.31
2018-03-15T06:38:13.304Z,4.32
2018-03-15T06:40:40.868Z,4.35
2018-03-15T06:43:08.391Z,4.40
2018-03-15T06:45:35.910Z,4.43
2018-03-15T06:48:03.431Z,4.43
2018-03-15T06:50:31.159Z,4.41
2018-03-15T06:52:58.674Z,4.44
2018-03-15T06:55:26.252Z,4.44
2018-03-15T06:57:53.751Z,4.43
2018-03-15T07:00:21.742Z,4.36
2018-03-15T07:02:49.257Z,4.38
2018-03-15T07:05:16.794Z,4.46
2018-03-15T07:07:44.320Z,4.45
2018-03-15T07:10:11.925Z,4.48
2018-03-15T07:12:39.436Z,4.37
2018-03-15T07:15:06.966Z,4.40
2018-03-15T07:17:34.514Z,4.41
2018-03-15T07:20:02.045Z,4.53
2018-03-15T07:22:29.554Z,4.56
2018-03-15T07:24:57.082Z,4.55
2018-03-15T07:27:24.725Z,4.54
2018-03-15T07:29:52.789Z,4.51
2018-03-15T07:32:20.326Z,4.40
2018-03-15T07:34:47.871Z,4.41
2018-03-15T07:37:15.414Z,4.40
2018-03-15T07:39:42.989Z,4.47
2018-03-15T07:42:10.527Z,4.46
2018-03-15T07:44:38.091Z,4.34
2018-03-15T07:47:05.652Z,4.36
2018-03-15T07:49:33.179Z,4.41
2018-03-15T07:52:00.730Z,4.50
2018-03-15T07:54:29.083Z,4.48
2018-03-15T07:56:56.637Z,4.57
2018-03-15T07:59:24.169Z,4.39
2018-03-15T08:01:51.775Z,4.46
2018-03-15T08:04:19.387Z,4.54
2018-03-15T08:06:46.974Z,4.55
2018-03-15T08:09:14.492Z,4.57
2018-03-15T08:11:42.038Z,4.66
2018-03-15T08:14:09.604Z,4.66
2018-03-15T08:16:37.187Z,4.73
2018-03-15T08:19:06.119Z,4.73
2018-03-15T08:21:33.646Z,4.80
2018-03-15T08:24:01.214Z,4.78
2018-03-15T08:26:28.774Z,4.68
2018-03-15T08:28:56.336Z,4.64
2018-03-15T08:31:26.032Z,4.60
2018-03-15T08:33:53.824Z,4.58
2018-03-15T08:36:22.990Z,4.59
2018-03-15T08:38:55.146Z,4.69
2018-03-15T08:41:23.998Z,4.68
2018-03-15T08:43:54.576Z,4.63
2018-03-15T08:46:22.322Z,4.72
2018-03-15T08:48:50.045Z,4.72
2018-03-15T08:51:17.596Z,4.68
2018-03-15T08:53:45.857Z,4.75
2018-03-15T08:56:13.403Z,4.68
2018-03-15T08:58:43.101Z,4.74
2018-03-15T09:01:11.797Z,4.74
2018-03-15T09:03:39.901Z,4.76
2018-03-15T09:06:07.432Z,4.80
2018-03-15T09:08:37.603Z,4.89
2018-03-15T09:11:06.396Z,4.89
2018-03-15T09:13:33.926Z,5.04
2018-03-15T09:16:01.488Z,4.96
2018-03-15T09:18:30.159Z,5.03
2018-03-15T09:20:58.480Z,5.24
2018-03-15T09:23:25.982Z,5.17
2018-03-15T09:25:53.849Z,5.25
2018-03-15T09:28:21.480Z,5.30
2018-03-15T09:30:49.893Z,5.37
2018-03-15T09:33:17.655Z,5.41
2018-03-15T09:35:45.403Z,5.60
2018-03-15T09:38:12.979Z,5.64
2018-03-15T09:40:41.064Z,5.58
2018-03-15T09:43:08.609Z,5.79
2018-03-15T09:45:38.917Z,5.91
2018-03-15T09:48:07.869Z,5.89
2018-03-15T09:50:35.418Z,5.90
2018-03-15T09:53:02.970Z,5.99
2018-03-15T09:55:30.501Z,6.06
2018-03-15T09:57:58.079Z,6.09
2018-03-15T10:00:25.641Z,6.02
2018-03-15T10:02:53.201Z,6.04
2018-03-15T10:05:21.063Z,5.92
2018-03-15T10:07:48.606Z,5.90
2018-03-15T10:10:16.237Z,5.90
2018-03-15T10:12:44.040Z,5.93
2018-03-15T10:15:11.582Z,5.91
2018-03-15T10:17:39.154Z,5.89
2018-03-15T10:20:06.811Z,5.99
2018-03-15T10:22:34.525Z,6.00
2018-03-15T10:25:13.607Z,5.99
2018-03-15T10:27:30.547Z,6.07
2018-03-15T10:29:58.798Z,6.13
2018-03-15T10:32:26.507Z,6.01
2018-03-15T10:34:59.732Z,5.97
2018-03-15T10:37:27.419Z,5.99
2018-03-15T10:39:54.977Z,6.00
2018-03-15T10:42:22.870Z,6.13
2018-03-15T10:44:50.444Z,6.14
2018-03-15T10:47:17.992Z,6.26
2018-03-15T10:49:45.549Z,6.35
2018-03-15T10:52:13.130Z,6.24
2018-03-15T10:54:41.497Z,6.37
2018-03-15T10:57:09.134Z,6.37
2018-03-15T10:59:36.638Z,6.26
2018-03-15T11:02:06.166Z,6.30
2018-03-15T11:04:34.437Z,6.41
2018-03-15T11:07:05.202Z,6.25
2018-03-15T11:09:34.558Z,6.26
2018-03-15T11:12:02.474Z,6.27
2018-03-15T11:14:31.043Z,6.34
2018-03-15T11:16:59.809Z,6.14
2018-03-15T11:19:27.537Z,6.14
2018-03-15T11:21:55.079Z,6.14
2018-03-15T11:24:22.836Z,6.18
2018-03-15T11:26:50.659Z,6.20
2018-03-15T11:29:18.234Z,6.13
2018-03-15T11:31:45.786Z,6.15
2018-03-15T11:34:13.340Z,6.10
2018-03-15T11:36:41.078Z,5.98
2018-03-15T11:39:08.940Z,6.02
2018-03-15T11:41:36.549Z,5.99
2018-03-15T11:44:04.475Z,6.09
2018-03-15T11:46:32.167Z,5.95
2018-03-15T11:48:59.791Z,5.87
2018-03-15T11:51:27.423Z,5.94
2018-03-15T11:53:54.968Z,5.99
2018-03-15T11:56:24.586Z,5.96
2018-03-15T11:58:53.394Z,6.04
2018-03-15T12:01:21.202Z,6.15
2018-03-15T12:03:52.578Z,6.11
2018-03-15T12:06:21.430Z,6.13
2018-03-15T12:08:48.971Z,6.18
2018-03-15T12:11:16.531Z,6.13
2018-03-15T12:13:44.139Z,6.28
2018-03-15T12:16:11.991Z,6.31
2018-03-15T12:18:39.516Z,6.13
2018-03-15T12:21:07.194Z,6.22
2018-03-15T12:23:34.718Z,6.28
2018-03-15T12:26:02.252Z,6.30
2018-03-15T12:28:29.888Z,6.32
2018-03-15T12:30:57.424Z,6.31
2018-03-15T12:33:25.108Z,6.24
2018-03-15T12:35:52.640Z,6.31
2018-03-15T12:38:20.537Z,6.31
2018-03-15T12:40:48.040Z,6.40
2018-03-15T12:43:15.670Z,6.48
2018-03-15T12:45:43.529Z,6.47
2018-03-15T12:48:11.122Z,6.56
2018-03-15T12:50:38.642Z,6.56
2018-03-15T12:53:06.162Z,6.58
2018-03-15T12:55:33.707Z,6.88
2018-03-15T12:58:01.233Z,6.87
2018-03-15T13:00:28.856Z,7.04
2018-03-15T13:02:56.436Z,7.12
2018-03-15T13:05:24.541Z,7.16
2018-03-15T13:07:52.790Z,7.04
2018-03-15T13:10:20.441Z,6.83
2018-03-15T13:12:48.853Z,6.82
2018-03-15T13:15:16.388Z,6.76
2018-03-15T13:17:43.941Z,6.76
2018-03-15T13:20:12.752Z,6.74
2018-03-15T13:22:40.842Z,6.85
2018-03-15T13:25:08.478Z,6.74
2018-03-15T13:27:36.833Z,6.68
2018-03-15T13:30:04.422Z,6.74
2018-03-15T13:32:32.470Z,6.80
2018-03-15T13:35:00.336Z,6.78
2018-03-15T13:37:28.171Z,6.85
2018-03-15T13:39:56.602Z,6.75
2018-03-15T13:42:24.138Z,6.58
2018-03-15T13:44:51.946Z,6.45
2018-03-15T13:47:19.787Z,6.32
2018-03-15T13:49:47.690Z,6.29
2018-03-15T13:52:16.377Z,6.45
2018-03-15T13:54:44.044Z,6.33
2018-03-15T13:57:11.649Z,6.24
2018-03-15T13:59:40.299Z,6.18
2018-03-15T14:02:07.924Z,6.13
2018-03-15T14:04:35.540Z,6.19
2018-03-15T14:07:03.069Z,6.25
2018-03-15T14:09:30.635Z,6.16
2018-03-15T14:11:58.295Z,6.13
2018-03-15T14:14:25.840Z,6.31
2018-03-15T14:16:53.396Z,6.28
2018-03-15T14:19:21.033Z,6.32
2018-03-15T14:21:48.586Z,6.48
2018-03-15T14:24:16.158Z,6.71
2018-03-15T14:26:43.828Z,6.73
2018-03-15T14:29:11.340Z,6.92
2018-03-15T14:31:39.184Z,6.97
2018-03-15T14:34:06.755Z,7.13
2018-03-15T14:36:34.306Z,7.07
2018-03-15T14:39:01.813Z,6.89
2018-03-15T14:41:29.333Z,6.77
2018-03-15T14:43:56.878Z,6.62
2018-03-15T14:46:24.494Z,6.17
2018-03-15T14:48:52.005Z,6.29
2018-03-15T14:51:19.513Z,6.33
2018-03-15T14:53:47.041Z,6.32
2018-03-15T14:56:14.582Z,6.35
2018-03-15T14:58:42.084Z,6.31
2018-03-15T15:01:09.646Z,6.29
2018-03-15T15:03:37.684Z,6.22
2018-03-15T15:06:05.467Z,6.17
2018-03-15T15:08:32.997Z,6.16
2018-03-15T15:11:00.536Z,6.27
2018-03-15T15:13:28.094Z,6.29
2018-03-15T15:15:55.630Z,6.32
2018-03-15T15:18:23.153Z,6.38
2018-03-15T15:20:50.723Z,6.33
2018-03-15T15:23:18.226Z,6.42
2018-03-15T15:25:45.736Z,6.34
2018-03-15T15:28:13.260Z,6.35
2018-03-15T15:30:40.788Z,6.39
2018-03-15T15:33:08.622Z,6.32
2018-03-15T15:35:36.164Z,6.31
2018-03-15T15:38:03.707Z,6.24
2018-03-15T15:40:31.292Z,6.31
2018-03-15T15:42:58.800Z,6.14
2018-03-15T15:45:29.361Z,6.13
2018-03-15T15:47:59.592Z,6.16
2018-03-15T15:50:31.592Z,6.14
2018-03-15T15:53:02.221Z,6.16
2018-03-15T15:55:33.389Z,6.09
2018-03-15T15:58:04.703Z,6.05
2018-03-15T16:00:34.819Z,6.10
2018-03-15T16:03:02.402Z,6.13
2018-03-15T16:05:29.957Z,6.12
2018-03-15T16:08:06.152Z,6.00
2018-03-15T16:10:37.901Z,6.06
2018-03-15T16:13:09.739Z,6.03
2018-03-15T16:15:40.692Z,6.06
2018-03-15T16:18:10.027Z,5.98
2018-03-15T16:20:42.363Z,6.00
2018-03-15T16:23:12.007Z,5.93
2018-03-15T16:25:40.789Z,5.98
2018-03-15T16:28:13.832Z,5.95
2018-03-15T16:30:42.294Z,5.88
2018-03-15T16:33:12.580Z,5.94
2018-03-15T16:35:41.476Z,5.92
2018-03-15T16:38:14.722Z,5.84
2018-03-15T16:40:44.682Z,5.84
2018-03-15T16:43:17.212Z,5.77
2018-03-15T16:45:44.933Z,5.80
2018-03-15T16:48:12.471Z,5.82
2018-03-15T16:50:40.085Z,5.85
2018-03-15T16:53:07.614Z,5.82
2018-03-15T16:55:35.213Z,5.84
2018-03-15T16:58:04.227Z,5.79
2018-03-15T17:00:31.802Z,5.77
2018-03-15T17:03:07.255Z,5.73
2018-03-15T17:05:35.613Z,5.70
2018-03-15T17:08:12.262Z,5.65
2018-03-15T17:10:40.917Z,5.59
2018-03-15T17:13:20.827Z,5.51
2018-03-15T17:15:53.473Z,5.53
2018-03-15T17:18:25.285Z,5.56
2018-03-15T17:20:54.139Z,5.50
2018-03-15T17:23:24.481Z,5.49
2018-03-15T17:25:52.430Z,5.54
2018-03-15T17:28:19.958Z,5.49
2018-03-15T17:30:47.492Z,5.52
2018-03-15T17:33:17.256Z,5.42
2018-03-15T17:35:46.979Z,5.41
2018-03-15T17:38:16.296Z,5.40
2018-03-15T17:40:43.814Z,5.32
2018-03-15T17:43:11.629Z,5.28
2018-03-15T17:45:39.731Z,5.35
2018-03-15T17:48:08.199Z,5.28
2018-03-15T17:50:38.450Z,5.19
2018-03-15T17:53:06.418Z,5.30
2018-03-15T17:55:37.224Z,5.28
2018-03-15T17:58:05.306Z,5.26
2018-03-15T18:00:33.772Z,5.28
2018-03-15T18:03:01.658Z,5.32
2018-03-15T18:05:29.472Z,5.30
2018-03-15T18:07:58.176Z,5.25
2018-03-15T18:10:26.496Z,5.28
2018-03-15T18:12:54.459Z,5.35
2018-03-15T18:15:23.005Z,5.26
2018-03-15T18:17:50.809Z,5.26
2018-03-15T18:20:18.705Z,5.20
2018-03-15T18:22:46.304Z,5.22
2018-03-15T18:25:15.205Z,5.24
2018-03-15T18:27:43.822Z,5.27
2018-03-15T18:30:11.577Z,5.22
2018-03-15T18:32:42.119Z,5.22
2018-03-15T18:35:13.217Z,5.13
2018-03-15T18:37:41.692Z,5.05
2018-03-15T18:40:10.440Z,5.05
2018-03-15T18:42:38.598Z,5.07
2018-03-15T18:45:07.863Z,5.04
2018-03-15T18:47:37.569Z,5.02
2018-03-15T18:50:05.720Z,4.97
2018-03-15T18:52:33.533Z,4.93
2018-03-15T18:55:01.499Z,4.98
2018-03-15T18:57:31.613Z,4.97
2018-03-15T18:59:59.362Z,4.97
2018-03-15T19:02:26.916Z,4.86
2018-03-15T19:04:54.949Z,4.87
2018-03-15T19:07:22.494Z,4.92
2018-03-15T19:09:50.012Z,4.92
2018-03-15T19:12:17.553Z,4.94
2018-03-15T19:14:45.055Z,4.90
2018-03-15T19:17:12.719Z,4.93
2018-03-15T19:19:40.248Z,4.93
2018-03-15T19:22:07.751Z,4.76
2018-03-15T19:24:35.387Z,4.75
2018-03-15T19:27:02.896Z,4.73
2018-03-15T19:29:30.441Z,4.72
2018-03-15T19:31:57.956Z,4.75
2018-03-15T19:34:25.484Z,4.75
2018-03-15T19:36:53.008Z,4.76
2018-03-15T19:39:20.526Z,4.73
2018-03-15T19:41:48.071Z,4.67
2018-03-15T19:44:15.911Z,4.66
2018-03-15T19:46:43.419Z,4.66
2018-03-15T19:49:10.941Z,4.69
2018-03-15T19:51:38.647Z,4.72
2018-03-15T19:54:06.215Z,4.63
2018-03-15T19:56:33.717Z,4.56
2018-03-15T19:59:01.280Z,4.56
2018-03-15T20:01:29.122Z,4.55
2018-03-15T20:03:56.680Z,4.47
2018-03-15T20:06:24.208Z,4.48
2018-03-15T20:08:51.792Z,4.54
2018-03-15T20:11:19.445Z,4.48
2018-03-15T20:13:47.020Z,4.54
2018-03-15T20:16:15.810Z,4.51
2018-03-15T20:18:43.325Z,4.56
2018-03-15T20:21:10.829Z,4.51
2018-03-15T20:23:43.983Z,4.41
2018-03-15T20:26:11.550Z,4.38
2018-03-15T20:28:44.597Z,4.38
2018-03-15T20:31:12.128Z,4.35
2018-03-15T20:33:45.345Z,4.34
2018-03-15T20:36:12.926Z,4.35
2018-03-15T20:38:40.455Z,4.40
2018-03-15T20:44:02.073Z,4.29
2018-03-15T20:46:35.168Z,4.29
2018-03-15T20:49:08.586Z,4.36
2018-03-15T20:51:36.168Z,4.33
2018-03-15T20:54:03.700Z,4.35
2018-03-15T20:56:31.210Z,4.34
2018-03-15T20:58:58.824Z,4.40
2018-03-15T21:01:26.513Z,4.44
2018-03-15T21:03:54.032Z,4.37
2018-03-15T21:06:21.592Z,4.34
2018-03-15T21:08:49.092Z,4.35
2018-03-15T21:11:16.657Z,4.19
2018-03-15T21:13:44.373Z,4.08
2018-03-15T21:16:12.161Z,4.16
2018-03-15T21:18:39.689Z,4.16
2018-03-15T21:21:07.214Z,4.17
2018-03-15T21:23:34.746Z,4.24
2018-03-15T21:26:02.280Z,4.21
2018-03-15T21:28:30.184Z,4.24
2018-03-15T21:30:57.712Z,4.27
2018-03-15T21:33:25.250Z,4.22
2018-03-15T21:35:53.155Z,4.16
2018-03-15T21:38:20.730Z,4.15
2018-03-15T21:40:48.262Z,4.15
2018-03-15T21:43:15.763Z,4.17
2018-03-15T21:45:43.285Z,4.24
2018-03-15T21:48:10.809Z,4.17
2018-03-15T21:50:38.343Z,4.13
2018-03-15T21:53:05.859Z,4.14
2018-03-15T21:55:33.395Z,4.15
2018-03-15T21:58:00.900Z,4.11
2018-03-15T22:00:28.467Z,4.10
2018-03-15T22:02:56.023Z,4.07
2018-03-15T22:05:23.595Z,4.04
2018-03-15T22:07:51.120Z,3.91
2018-03-15T22:10:18.772Z,3.90
2018-03-15T22:12:46.295Z,3.89
2018-03-15T22:15:14.117Z,3.82
2018-03-15T22:17:41.619Z,3.74
2018-03-15T22:20:09.167Z,3.80
2018-03-15T22:22:36.712Z,3.80
2018-03-15T22:25:04.295Z,3.81
2018-03-15T22:27:31.799Z,3.79
2018-03-15T22:29:59.590Z,3.81
2018-03-15T22:32:27.122Z,3.85
2018-03-15T22:34:54.654Z,3.85
2018-03-15T22:37:22.198Z,3.80
2018-03-15T22:39:49.700Z,3.81
2018-03-15T22:42:17.232Z,3.78
2018-03-15T22:44:44.736Z,3.87
2018-03-15T22:47:12.283Z,3.76
2018-03-15T22:49:39.787Z,3.80
2018-03-15T22:52:09.491Z,3.81
2018-03-15T22:54:37.040Z,3.84
2018-03-15T22:57:04.580Z,3.91
2018-03-15T22:59:32.095Z,3.90
2018-03-15T23:01:59.631Z,3.91
2018-03-15T23:04:27.387Z,3.79
2018-03-15T23:06:54.930Z,3.82
2018-03-15T23:09:22.451Z,3.79
2018-03-15T23:11:50.023Z,3.80
2018-03-15T23:14:17.524Z,3.79
2018-03-15T23:16:45.059Z,3.77
2018-03-15T23:19:12.560Z,3.78
2018-03-15T23:21:40.088Z,3.79
2018-03-15T23:24:07.874Z,3.83
2018-03-15T23:26:35.398Z,3.80
2018-03-15T23:29:02.929Z,3.77
2018-03-15T23:31:30.474Z,3.82
2018-03-15T23:33:58.009Z,3.69
2018-03-15T23:36:25.560Z,3.68
2018-03-15T23:38:54.116Z,3.63
2018-03-15T23:41:21.693Z,3.64
2018-03-15T23:43:49.248Z,3.64
2018-03-15T23:46:16.780Z,3.65
2018-03-15T23:48:44.290Z,3.60
2018-03-15T23:51:11.976Z,3.51
2018-03-15T23:53:39.476Z,3.53
2018-03-15T23:56:07.003Z,3.53
2018-03-15T23:58:34.514Z,3.53
